Pullman Moscow Regional Airport
KPUW : now visible

Airfield :











YOU CAN JOIN US ON...

 
LOGIN :

Register | Disclaimer

   EN    FR    IT 

 









Legend :    VFR   Marginal VFR   IFR   Intensive IFR   Very Intensive IFR
Visi :
Ceiling :
>= 8 km
>= 3000ft
5 to 8 km
1000 to 3000 ft
1500m to 5 km
500 to 1000 ft
800 to 1500m
200 to 500 ft
< 800m
< 200 ft
Symbols :   Thunderstorms  Fog  Heavy snow  Heavy precipitations  Wind > 20 kt






- Airport Elevation : 2556 ft
- IATA code : PUW


KPUW - Pullman Moscow Regional

CURRENT METAR :
  • 121753Z AUTO 24007KT 10SM CLR 07/03 A3001 RMK AO2 SLP176 T00670033 10067 20033 51019

EXPIRED METARs :
  • 121653Z AUTO 23006KT 10SM SCT014 06/03 A2999 RMK AO2 SLP170 T00560033
  • 121553Z AUTO 24009G20KT 10SM SCT015 04/02 A2997 RMK AO2 SLP164 T00440022

TAF KPUW
Valid from the 12 at 18:00 until the 13 at 18:00 UTC


121737Z 1218/1318 23017G24KT P6SM SCT014 BKN050
FM130000 22016G23KT 6SM -RA BR SCT005 OVC025
FM130600 25027G32KT 6SM BR VCSH SCT005 OVC040
FM130900 24022G30KT P6SM OVC100
FM131400 24012G20KT P6SM BKN100



MET'MAP, your aeronautical weather chart ! - Copyright ORBIFLY December 2007 - Disclaimer

ORBIFLY MET'MAP TEAM :

Programming & Development : Alexandra Zaïnal
Concept & original design : Baudouin d'Aumeries
Assistance for programming : Marc-Olivier Méhu
Technical & hardware support : Manuel Goepfert

Contact : metmap@orbifly.com




SOURCES & CREDITS :

   NOAA       Earth
Advisory